Maersk Essen — V7UQ8 — position and weather

sailwx.info

Track history (hours):
 
Tides and Currents Weather Stations Pressure Air Temp Water Temp Dewpoint Dewpoint Depression Visibility Wind Speed Wind Dir Waves Ship Positions

Maersk Essen

Last reported at 2016-Apr-30 02:33 UTC. Time now 2016-Apr-30 03:25 UTC.
Position N 53°32' E 009°55'.

Length 367 m; draft 11.5 m.

Type: Ship (hazmat cat A). MMSI: 538004007.

Date/timePositionNaut miles runAvg speedWind from/ knotsBaromVisibWave heightAir tempDewpointWater temp
2016-Apr-30 02:33N 53°32' E 009°55'0 0.0
2016-Apr-30 01:33N 53°32' E 009°55'0 0.0
2016-Apr-30 00:33N 53°32' E 009°55'0 0.0
2016-Apr-29 23:33N 53°32' E 009°55'0 0.0
2016-Apr-29 22:33N 53°32' E 009°55'0 0.0
2016-Apr-29 21:33N 53°32' E 009°55'0 0.0
2016-Apr-29 20:33N 53°32' E 009°55'0 0.0
2016-Apr-29 19:33N 53°32' E 009°55'0 0.0
2016-Apr-29 18:33N 53°32' E 009°55'0 0.0
2016-Apr-29 17:33N 53°32' E 009°55'0 0.0
2016-Apr-29 16:33N 53°32' E 009°55'0 0.0
2016-Apr-29 15:33N 53°32' E 009°55'0 0.0
2016-Apr-29 14:33N 53°32' E 009°55'0 0.0
2016-Apr-29 13:33N 53°32' E 009°55'0 0.0
2016-Apr-29 12:33N 53°32' E 009°55'0 0.0
2016-Apr-29 11:33N 53°32' E 009°55'0 0.0
2016-Apr-29 10:33N 53°32' E 009°55'0 0.0
2016-Apr-29 09:33N 53°32' E 009°55'0 0.0
2016-Apr-29 08:33N 53°32' E 009°55'0 0.0
2016-Apr-29 07:33N 53°32' E 009°55'0 0.0
2016-Apr-29 06:33N 53°32' E 009°55'0 0.0
2016-Apr-29 05:33N 53°32' E 009°55'0 0.0
2016-Apr-29 04:33N 53°32' E 009°55'0 0.0
2016-Apr-29 03:33N 53°32' E 009°55'0 0.0
2016-Apr-29 02:33N 53°32' E 009°55'0 0.0
2016-Apr-29 01:33N 53°32' E 009°55'0 0.0
2016-Apr-29 00:33N 53°32' E 009°55'0 0.0
2016-Apr-28 23:33N 53°32' E 009°55'0 0.0
2016-Apr-28 22:33N 53°32' E 009°55'0 0.0
2016-Apr-28 21:33N 53°32' E 009°55'0 0.0
2016-Apr-28 20:33N 53°32' E 009°55'0 0.0
2016-Apr-28 19:33N 53°32' E 009°55'3 3.4
2016-Apr-28 18:34N 53°33' E 009°50'1111.1
2016-Apr-28 17:33N 53°37' E 009°33'1313.1
2016-Apr-28 16:33N 53°49' E 009°22'1413.6
2016-Apr-28 15:33N 53°51' E 008°59'1414.4
2016-Apr-28 14:33N 53°57' E 008°37'1918.5
2016-Apr-28 13:33N 53°59' E 008°06'1413.2
2016-Apr-28 12:31N 54°05' E 007°45'0 0.1
2016-Apr-28 11:31N 54°05' E 007°45'0 0.0
2016-Apr-28 10:31N 54°05' E 007°45'0 0.0
2016-Apr-28 09:31N 54°05' E 007°45'0 0.0
2016-Apr-28 08:31N 54°05' E 007°45'0 0.1
2016-Apr-28 07:31N 54°05' E 007°45'0 0.0
2016-Apr-28 06:31N 54°05' E 007°45'0 0.1
2016-Apr-28 05:31N 54°05' E 007°45'7 7.4
2016-Apr-28 04:33N 53°58' E 007°44'1211.9
2016-Apr-28 03:33N 53°54' E 007°24'1111.1
2016-Apr-28 02:33N 53°52' E 007°06'1111.5
2016-Apr-28 01:33N 53°49' E 006°47'1211.9
2016-Apr-28 00:33N 53°46' E 006°28'1211.8
2016-Apr-27 23:33N 53°43' E 006°08'1211.8
2016-Apr-27 22:33N 53°40' E 005°49'1211.9
2016-Apr-27 21:34N 53°36' E 005°30'1211.8
2016-Apr-27 20:33N 53°32' E 005°11'1211.7
2016-Apr-27 19:33N 53°27' E 004°53'1310.8
2016-Apr-27 18:21N 53°18' E 004°38'910.9
2016-Apr-27 17:33N 53°11' E 004°31'1010.2
2016-Apr-27 16:33N 53°01' E 004°23'10 9.5
2016-Apr-27 15:33N 52°53' E 004°16'10 9.6
2016-Apr-27 14:33N 52°45' E 004°07'9 9.1
2016-Apr-27 13:33N 52°38' E 003°57'9 9.1
2016-Apr-27 12:33N 52°32' E 003°47'9 8.8
2016-Apr-27 11:33N 52°24' E 003°39'9 8.7
2016-Apr-27 10:33N 52°16' E 003°36'8 8.4
2016-Apr-27 09:33N 52°08' E 003°30'9 8.7
2016-Apr-27 08:33N 51°60' E 003°25'11 9.8
2016-Apr-27 07:28N 51°50' E 003°20'1310.5
2016-Apr-27 06:16N 51°39' E 003°11'1216.7
2016-Apr-27 05:33N 51°28' E 003°02'1212.0
2016-Apr-27 04:33N 51°24' E 003°20'1212.0
2016-Apr-27 03:33N 51°26' E 003°39'1010.4
2016-Apr-27 02:34N 51°21' E 003°53'7 7.3
2016-Apr-27 01:33N 51°22' E 004°05'8 8.0
2016-Apr-27 00:33N 51°19' E 004°16'1 1.0
2016-Apr-26 23:32N 51°18' E 004°16'0 0.0
2016-Apr-26 22:32N 51°18' E 004°16'0 0.0
2016-Apr-26 21:32N 51°18' E 004°16'0 0.0
2016-Apr-26 20:32N 51°18' E 004°16'0 0.0
2016-Apr-26 19:32N 51°18' E 004°16'0 0.0
2016-Apr-26 18:32N 51°18' E 004°16'0 0.0
2016-Apr-26 17:32N 51°18' E 004°16'0 0.0
2016-Apr-26 16:32N 51°18' E 004°16'0 0.0
2016-Apr-26 15:29N 51°18' E 004°16'0 0.0
2016-Apr-26 14:32N 51°18' E 004°16'0 0.0
2016-Apr-26 13:32N 51°18' E 004°16'0 0.0
2016-Apr-26 12:31N 51°18' E 004°16'0 0.0
2016-Apr-26 11:31N 51°18' E 004°16'0 0.0
2016-Apr-26 10:32N 51°18' E 004°16'0 0.0
2016-Apr-26 09:32N 51°18' E 004°16'0 0.0
2016-Apr-26 08:31N 51°18' E 004°16'0 0.0
2016-Apr-26 07:31N 51°18' E 004°16'0 0.0
2016-Apr-26 06:31N 51°18' E 004°16'0 0.0
2016-Apr-26 05:31N 51°18' E 004°16'0 0.0
2016-Apr-26 04:28N 51°18' E 004°16'0 0.0
2016-Apr-26 03:32N 51°18' E 004°16'0 0.0
2016-Apr-26 02:31N 51°18' E 004°16'1 0.8
2016-Apr-26 01:33N 51°19' E 004°16'8 7.6
2016-Apr-26 00:33N 51°22' E 004°06'9 8.7
2016-Apr-25 23:33N 51°21' E 003°52'1010.3
2016-Apr-25 22:33N 51°26' E 003°37'1413.7
2016-Apr-25 21:33N 51°25' E 003°16'1515.1
2016-Apr-25 20:33N 51°25' E 002°51'1010.0
2016-Apr-25 19:33N 51°22' E 002°36'1414.0
2016-Apr-25 18:34N 51°17' E 002°16'1515.2
2016-Apr-25 17:34N 51°10' E 001°54'1615.6
2016-Apr-25 16:33N 50°60' E 001°35'1616.2
2016-Apr-25 15:33N 50°45' E 001°23'4916.3
2016-Apr-25 12:34N 50°20' E 000°17'1717.4
2016-Apr-25 11:33N 50°15' W 000°09'1817.7
2016-Apr-25 10:33N 50°10' W 000°35'1817.6
2016-Apr-25 09:33N 50°05' W 001°02'6418.8
2016-Apr-25 06:08N 49°51' W 002°39'1317.4
2016-Apr-25 05:23N 49°48' W 002°59'1416.8
2016-Apr-25 04:34N 49°43' W 003°19'6616.2
2016-Apr-25 00:29N 49°08' W 004°45'1715.1
2016-Apr-24 23:20N 48°58' W 005°07'1214.9
2016-Apr-24 22:33N 48°52' W 005°22'58016.0
2016-Apr-23 10:19N 39°45' W 009°51'1817.1
2016-Apr-23 09:17N 39°27' W 009°52'1216.6
2016-Apr-23 08:33N 39°15' W 009°52'1616.2
2016-Apr-23 07:33N 38°59' W 009°53'1616.1
2016-Apr-23 06:33N 38°43' W 009°52'1616.4
2016-Apr-23 05:34N 38°30' W 009°40'1717.0
2016-Apr-23 04:33N 38°18' W 009°24'1716.8
2016-Apr-23 03:33N 38°06' W 009°09'1717.0
2016-Apr-23 02:33N 37°54' W 008°54'3 3.0
2016-Apr-23 01:31N 37°56' W 008°51'0 0.0
2016-Apr-23 00:31N 37°56' W 008°51'0 0.0
2016-Apr-22 23:31N 37°56' W 008°51'0 0.0
2016-Apr-22 22:31N 37°56' W 008°51'0 0.0
2016-Apr-22 21:31N 37°56' W 008°51'0 0.0
2016-Apr-22 20:31N 37°56' W 008°51'0 0.0
2016-Apr-22 19:31N 37°56' W 008°51'0 0.0
2016-Apr-22 18:31N 37°56' W 008°51'0 0.0
2016-Apr-22 17:31N 37°56' W 008°51'0 0.0
2016-Apr-22 16:31N 37°56' W 008°51'0 0.0
2016-Apr-22 15:31N 37°56' W 008°51'0 0.0
2016-Apr-22 14:31N 37°56' W 008°51'0 0.0
2016-Apr-22 13:28N 37°56' W 008°51'0 0.0
2016-Apr-22 12:31N 37°56' W 008°51'0 0.0
2016-Apr-22 11:31N 37°56' W 008°51'0 0.0
2016-Apr-22 10:31N 37°56' W 008°51'0 0.0
2016-Apr-22 09:31N 37°56' W 008°51'0 0.0
2016-Apr-22 08:31N 37°56' W 008°51'0 0.0
2016-Apr-22 07:31N 37°56' W 008°51'1 0.8
2016-Apr-22 06:33N 37°55' W 008°50'6 5.8
2016-Apr-22 05:33N 37°50' W 008°55'1312.9
2016-Apr-22 04:33N 37°39' W 009°01'1615.6
2016-Apr-22 03:33N 37°24' W 009°08'2120.0
2016-Apr-22 02:29N 37°04' W 009°19'5518.0
2016-Apr-21 23:27N 36°34' W 008°23'13819.5
2016-Apr-21 16:22N 35°58' W 005°37'1417.6
2016-Apr-21 15:33N 36°01' W 005°20'  
Track history (hours):
 
Tides and Currents Weather Stations Pressure Air Temp Water Temp Dewpoint Dewpoint Depression Visibility Wind Speed Wind Dir Waves Ship Positions

Maersk Essen

Last reported at 2016-Apr-30 02:33 UTC. Time now 2016-Apr-30 03:25 UTC.
Position N 53°32' E 009°55'.

Length 367 m; draft 11.5 m.

Type: Ship (hazmat cat A). MMSI: 538004007.

Date/timePositionNaut miles runAvg speedWind from/ knotsBaromVisibWave heightAir tempDewpointWater temp
2016-Apr-30 02:33N 53°32' E 009°55'0 0.0
2016-Apr-30 01:33N 53°32' E 009°55'0 0.0
2016-Apr-30 00:33N 53°32' E 009°55'0 0.0
2016-Apr-29 23:33N 53°32' E 009°55'0 0.0
2016-Apr-29 22:33N 53°32' E 009°55'0 0.0
2016-Apr-29 21:33N 53°32' E 009°55'0 0.0
2016-Apr-29 20:33N 53°32' E 009°55'0 0.0
2016-Apr-29 19:33N 53°32' E 009°55'0 0.0
2016-Apr-29 18:33N 53°32' E 009°55'0 0.0
2016-Apr-29 17:33N 53°32' E 009°55'0 0.0
2016-Apr-29 16:33N 53°32' E 009°55'0 0.0
2016-Apr-29 15:33N 53°32' E 009°55'0 0.0
2016-Apr-29 14:33N 53°32' E 009°55'0 0.0
2016-Apr-29 13:33N 53°32' E 009°55'0 0.0
2016-Apr-29 12:33N 53°32' E 009°55'0 0.0
2016-Apr-29 11:33N 53°32' E 009°55'0 0.0
2016-Apr-29 10:33N 53°32' E 009°55'0 0.0
2016-Apr-29 09:33N 53°32' E 009°55'0 0.0
2016-Apr-29 08:33N 53°32' E 009°55'0 0.0
2016-Apr-29 07:33N 53°32' E 009°55'0 0.0
2016-Apr-29 06:33N 53°32' E 009°55'0 0.0
2016-Apr-29 05:33N 53°32' E 009°55'0 0.0
2016-Apr-29 04:33N 53°32' E 009°55'0 0.0
2016-Apr-29 03:33N 53°32' E 009°55'0 0.0
2016-Apr-29 02:33N 53°32' E 009°55'0 0.0
2016-Apr-29 01:33N 53°32' E 009°55'0 0.0
2016-Apr-29 00:33N 53°32' E 009°55'0 0.0
2016-Apr-28 23:33N 53°32' E 009°55'0 0.0
2016-Apr-28 22:33N 53°32' E 009°55'0 0.0
2016-Apr-28 21:33N 53°32' E 009°55'0 0.0
2016-Apr-28 20:33N 53°32' E 009°55'0 0.0
2016-Apr-28 19:33N 53°32' E 009°55'3 3.4
2016-Apr-28 18:34N 53°33' E 009°50'1111.1
2016-Apr-28 17:33N 53°37' E 009°33'1313.1
2016-Apr-28 16:33N 53°49' E 009°22'1413.6
2016-Apr-28 15:33N 53°51' E 008°59'1414.4
2016-Apr-28 14:33N 53°57' E 008°37'1918.5
2016-Apr-28 13:33N 53°59' E 008°06'1413.2
2016-Apr-28 12:31N 54°05' E 007°45'0 0.1
2016-Apr-28 11:31N 54°05' E 007°45'0 0.0
2016-Apr-28 10:31N 54°05' E 007°45'0 0.0
2016-Apr-28 09:31N 54°05' E 007°45'0 0.0
2016-Apr-28 08:31N 54°05' E 007°45'0 0.1
2016-Apr-28 07:31N 54°05' E 007°45'0 0.0
2016-Apr-28 06:31N 54°05' E 007°45'0 0.1
2016-Apr-28 05:31N 54°05' E 007°45'7 7.4
2016-Apr-28 04:33N 53°58' E 007°44'1211.9
2016-Apr-28 03:33N 53°54' E 007°24'1111.1
2016-Apr-28 02:33N 53°52' E 007°06'1111.5
2016-Apr-28 01:33N 53°49' E 006°47'1211.9
2016-Apr-28 00:33N 53°46' E 006°28'1211.8
2016-Apr-27 23:33N 53°43' E 006°08'1211.8
2016-Apr-27 22:33N 53°40' E 005°49'1211.9
2016-Apr-27 21:34N 53°36' E 005°30'1211.8
2016-Apr-27 20:33N 53°32' E 005°11'1211.7
2016-Apr-27 19:33N 53°27' E 004°53'1310.8
2016-Apr-27 18:21N 53°18' E 004°38'910.9
2016-Apr-27 17:33N 53°11' E 004°31'1010.2
2016-Apr-27 16:33N 53°01' E 004°23'10 9.5
2016-Apr-27 15:33N 52°53' E 004°16'10 9.6
2016-Apr-27 14:33N 52°45' E 004°07'9 9.1
2016-Apr-27 13:33N 52°38' E 003°57'9 9.1
2016-Apr-27 12:33N 52°32' E 003°47'9 8.8
2016-Apr-27 11:33N 52°24' E 003°39'9 8.7
2016-Apr-27 10:33N 52°16' E 003°36'8 8.4
2016-Apr-27 09:33N 52°08' E 003°30'9 8.7
2016-Apr-27 08:33N 51°60' E 003°25'11 9.8
2016-Apr-27 07:28N 51°50' E 003°20'1310.5
2016-Apr-27 06:16N 51°39' E 003°11'1216.7
2016-Apr-27 05:33N 51°28' E 003°02'1212.0
2016-Apr-27 04:33N 51°24' E 003°20'1212.0
2016-Apr-27 03:33N 51°26' E 003°39'1010.4
2016-Apr-27 02:34N 51°21' E 003°53'7 7.3
2016-Apr-27 01:33N 51°22' E 004°05'8 8.0
2016-Apr-27 00:33N 51°19' E 004°16'1 1.0
2016-Apr-26 23:32N 51°18' E 004°16'0 0.0
2016-Apr-26 22:32N 51°18' E 004°16'0 0.0
2016-Apr-26 21:32N 51°18' E 004°16'0 0.0
2016-Apr-26 20:32N 51°18' E 004°16'0 0.0
2016-Apr-26 19:32N 51°18' E 004°16'0 0.0
2016-Apr-26 18:32N 51°18' E 004°16'0 0.0
2016-Apr-26 17:32N 51°18' E 004°16'0 0.0
2016-Apr-26 16:32N 51°18' E 004°16'0 0.0
2016-Apr-26 15:29N 51°18' E 004°16'0 0.0
2016-Apr-26 14:32N 51°18' E 004°16'0 0.0
2016-Apr-26 13:32N 51°18' E 004°16'0 0.0
2016-Apr-26 12:31N 51°18' E 004°16'0 0.0
2016-Apr-26 11:31N 51°18' E 004°16'0 0.0
2016-Apr-26 10:32N 51°18' E 004°16'0 0.0
2016-Apr-26 09:32N 51°18' E 004°16'0 0.0
2016-Apr-26 08:31N 51°18' E 004°16'0 0.0
2016-Apr-26 07:31N 51°18' E 004°16'0 0.0
2016-Apr-26 06:31N 51°18' E 004°16'0 0.0
2016-Apr-26 05:31N 51°18' E 004°16'0 0.0
2016-Apr-26 04:28N 51°18' E 004°16'0 0.0
2016-Apr-26 03:32N 51°18' E 004°16'0 0.0
2016-Apr-26 02:31N 51°18' E 004°16'1 0.8
2016-Apr-26 01:33N 51°19' E 004°16'8 7.6
2016-Apr-26 00:33N 51°22' E 004°06'9 8.7
2016-Apr-25 23:33N 51°21' E 003°52'1010.3
2016-Apr-25 22:33N 51°26' E 003°37'1413.7
2016-Apr-25 21:33N 51°25' E 003°16'1515.1
2016-Apr-25 20:33N 51°25' E 002°51'1010.0
2016-Apr-25 19:33N 51°22' E 002°36'1414.0
2016-Apr-25 18:34N 51°17' E 002°16'1515.2
2016-Apr-25 17:34N 51°10' E 001°54'1615.6
2016-Apr-25 16:33N 50°60' E 001°35'1616.2
2016-Apr-25 15:33N 50°45' E 001°23'4916.3
2016-Apr-25 12:34N 50°20' E 000°17'1717.4
2016-Apr-25 11:33N 50°15' W 000°09'1817.7
2016-Apr-25 10:33N 50°10' W 000°35'1817.6
2016-Apr-25 09:33N 50°05' W 001°02'6418.8
2016-Apr-25 06:08N 49°51' W 002°39'1317.4
2016-Apr-25 05:23N 49°48' W 002°59'1416.8
2016-Apr-25 04:34N 49°43' W 003°19'6616.2
2016-Apr-25 00:29N 49°08' W 004°45'1715.1
2016-Apr-24 23:20N 48°58' W 005°07'1214.9
2016-Apr-24 22:33N 48°52' W 005°22'58016.0
2016-Apr-23 10:19N 39°45' W 009°51'1817.1
2016-Apr-23 09:17N 39°27' W 009°52'1216.6
2016-Apr-23 08:33N 39°15' W 009°52'1616.2
2016-Apr-23 07:33N 38°59' W 009°53'1616.1
2016-Apr-23 06:33N 38°43' W 009°52'1616.4
2016-Apr-23 05:34N 38°30' W 009°40'1717.0
2016-Apr-23 04:33N 38°18' W 009°24'1716.8
2016-Apr-23 03:33N 38°06' W 009°09'1717.0
2016-Apr-23 02:33N 37°54' W 008°54'3 3.0
2016-Apr-23 01:31N 37°56' W 008°51'0 0.0
2016-Apr-23 00:31N 37°56' W 008°51'0 0.0
2016-Apr-22 23:31N 37°56' W 008°51'0 0.0
2016-Apr-22 22:31N 37°56' W 008°51'0 0.0
2016-Apr-22 21:31N 37°56' W 008°51'0 0.0
2016-Apr-22 20:31N 37°56' W 008°51'0 0.0
2016-Apr-22 19:31N 37°56' W 008°51'0 0.0
2016-Apr-22 18:31N 37°56' W 008°51'0 0.0
2016-Apr-22 17:31N 37°56' W 008°51'0 0.0
2016-Apr-22 16:31N 37°56' W 008°51'0 0.0
2016-Apr-22 15:31N 37°56' W 008°51'0 0.0
2016-Apr-22 14:31N 37°56' W 008°51'0 0.0
2016-Apr-22 13:28N 37°56' W 008°51'0 0.0
2016-Apr-22 12:31N 37°56' W 008°51'0 0.0
2016-Apr-22 11:31N 37°56' W 008°51'0 0.0
2016-Apr-22 10:31N 37°56' W 008°51'0 0.0
2016-Apr-22 09:31N 37°56' W 008°51'0 0.0
2016-Apr-22 08:31N 37°56' W 008°51'0 0.0
2016-Apr-22 07:31N 37°56' W 008°51'1 0.8
2016-Apr-22 06:33N 37°55' W 008°50'6 5.8
2016-Apr-22 05:33N 37°50' W 008°55'1312.9
2016-Apr-22 04:33N 37°39' W 009°01'1615.6
2016-Apr-22 03:33N 37°24' W 009°08'2120.0
2016-Apr-22 02:29N 37°04' W 009°19'5518.0
2016-Apr-21 23:27N 36°34' W 008°23'13819.5
2016-Apr-21 16:22N 35°58' W 005°37'1417.6
2016-Apr-21 15:33N 36°01' W 005°20'  

Dump ship's entire track history